Wind Surf — C6IO6 — position and weather

sailwx.info

Track history (hours):
 
Tides and Currents Weather Stations Pressure Air Temp Water Temp Dewpoint Dewpoint Depression Visibility Wind Speed Wind Dir Waves Ship Positions

Wind Surf

Operator: Holland America Line

Last reported at 2018-Aug-18 00:30 UTC. Time now 2018-Aug-18 00:46 UTC.
Position N 44°59' E 013°00'.

Length 187 m; draft 5.4 m.

Type: Passenger vessel. MMSI: 309242000.

Date/timePositionNaut miles runAvg speedWind from/ knotsBaromVisibWave heightAir tempDewpointWater temp
2018-Aug-18 00:30N 44°59' E 013°00'4 6.4
2018-Aug-17 23:57N 44°56' E 012°58'3 6.0
2018-Aug-17 23:30N 44°55' E 012°54'3 6.0
2018-Aug-17 23:00N 44°56' E 012°50'3 6.5
2018-Aug-17 22:29N 44°59' E 012°48'3 6.4
2018-Aug-17 22:00N 45°02' E 012°46'3 6.7
2018-Aug-17 21:30N 45°05' E 012°44'3 6.7
2018-Aug-17 21:00N 45°08' E 012°42'3 6.6
2018-Aug-17 20:30N 45°09' E 012°38'3 6.6
2018-Aug-17 20:00N 45°11' E 012°33'3 6.5
2018-Aug-17 19:30N 45°13' E 012°30'3 6.6
2018-Aug-17 19:00N 45°16' E 012°30'3 6.7
2018-Aug-17 18:30N 45°20' E 012°30'3 6.2
2018-Aug-17 18:00N 45°23' E 012°30'3 6.7
2018-Aug-17 17:30N 45°25' E 012°26'3 6.6
2018-Aug-17 17:00N 45°25' E 012°22'2 3.3
2018-Aug-17 16:25N 45°26' E 012°19'0 0.0
2018-Aug-17 15:55N 45°26' E 012°19'0 0.0
2018-Aug-17 15:28N 45°26' E 012°19'0 0.0
2018-Aug-17 14:55N 45°26' E 012°19'0 0.0
2018-Aug-17 13:58N 45°26' E 012°19'0 0.0
2018-Aug-17 13:28N 45°26' E 012°19'0 0.0
2018-Aug-17 12:58N 45°26' E 012°19'0 0.0
2018-Aug-17 12:28N 45°26' E 012°19'0 0.0
2018-Aug-17 11:58N 45°26' E 012°19'0 0.0
2018-Aug-17 11:28N 45°26' E 012°19'0 0.0
2018-Aug-17 10:58N 45°26' E 012°19'0 0.0
2018-Aug-17 10:28N 45°26' E 012°19'0 0.0
2018-Aug-17 09:58N 45°26' E 012°19'0 0.0
2018-Aug-17 09:28N 45°26' E 012°19'0 0.0
2018-Aug-17 08:58N 45°26' E 012°19'0 0.0
2018-Aug-17 08:25N 45°26' E 012°19'0 0.0
2018-Aug-17 07:58N 45°26' E 012°19'0 0.0
2018-Aug-17 07:25N 45°26' E 012°19'0 0.0
2018-Aug-17 06:58N 45°26' E 012°19'0 0.0
2018-Aug-17 06:28N 45°26' E 012°19'0 0.0
2018-Aug-17 05:58N 45°26' E 012°19'0 0.0
2018-Aug-17 05:28N 45°26' E 012°19'0 0.0
2018-Aug-17 04:58N 45°26' E 012°19'0 0.0
2018-Aug-17 04:28N 45°26' E 012°19'0 0.8
2018-Aug-17 04:00N 45°26' E 012°19'2 4.7
2018-Aug-17 03:30N 45°25' E 012°22'4 7.7
2018-Aug-17 03:00N 45°25' E 012°27'4 7.5
2018-Aug-17 02:30N 45°23' E 012°32'3 5.8
2018-Aug-17 02:00N 45°21' E 012°35'3 5.9
2018-Aug-17 01:30N 45°20' E 012°39'3 5.9
2018-Aug-17 01:01N 45°19' E 012°43'3 5.6
2018-Aug-17 00:30N 45°18' E 012°47'3 5.7
2018-Aug-17 00:00N 45°17' E 012°51'2 4.7
2018-Aug-16 23:30N 45°19' E 012°53'3 5.6
2018-Aug-16 23:00N 45°20' E 012°56'3 5.5
2018-Aug-16 22:30N 45°21' E 012°60'3 5.8
2018-Aug-16 21:58N 45°23' E 013°04'3 5.9
2018-Aug-16 21:30N 45°24' E 013°07'3 5.6
2018-Aug-16 21:00N 45°25' E 013°11'3 5.4
2018-Aug-16 20:30N 45°26' E 013°15'3 5.5
2018-Aug-16 20:00N 45°27' E 013°18'3 5.6
2018-Aug-16 19:30N 45°28' E 013°22'3 5.7
2018-Aug-16 19:01N 45°29' E 013°26'1 2.3
2018-Aug-16 18:30N 45°30' E 013°25'1 1.4
2018-Aug-16 18:00N 45°30' E 013°26'1 2.5
2018-Aug-16 17:30N 45°31' E 013°27'3 5.2
2018-Aug-16 17:00N 45°31' E 013°31'2 3.1
2018-Aug-16 16:29N 45°31' E 013°33'0 0.1
2018-Aug-16 15:38N 45°31' E 013°33'0 0.0
2018-Aug-16 15:11N 45°31' E 013°33'0 0.0
2018-Aug-16 14:56N 45°31' E 013°33'0 0.0
2018-Aug-16 14:29N 45°31' E 013°33'0 0.0
2018-Aug-16 13:47N 45°31' E 013°33'0 0.0
2018-Aug-16 13:26N 45°31' E 013°33'0 0.0
2018-Aug-16 12:38N 45°31' E 013°33'0 0.0
2018-Aug-16 12:29N 45°31' E 013°33'0 0.0
2018-Aug-16 11:41N 45°31' E 013°33'0 0.0
2018-Aug-16 11:29N 45°31' E 013°33'0 0.0
2018-Aug-16 10:53N 45°31' E 013°33'0 0.0
2018-Aug-16 10:29N 45°31' E 013°33'0 0.0
2018-Aug-16 09:47N 45°31' E 013°33'0 0.0
2018-Aug-16 09:23N 45°31' E 013°33'0 0.0
2018-Aug-16 08:59N 45°31' E 013°33'0 0.0
2018-Aug-16 08:29N 45°31' E 013°33'0 0.0
2018-Aug-16 07:44N 45°31' E 013°33'0 0.1
2018-Aug-16 07:20N 45°31' E 013°33'0 0.0
2018-Aug-16 06:05N 45°31' E 013°33'0 0.0
2018-Aug-16 05:53N 45°31' E 013°33'0 0.0
2018-Aug-16 05:23N 45°31' E 013°33'0 0.9
2018-Aug-16 05:00N 45°31' E 013°33'4 8.8
2018-Aug-16 04:31N 45°30' E 013°27'5 9.6
2018-Aug-16 04:01N 45°26' E 013°24'5 9.6
2018-Aug-16 03:30N 45°21' E 013°24'5 9.6
2018-Aug-16 03:00N 45°16' E 013°25'5 9.6
2018-Aug-16 02:30N 45°12' E 013°25'5 9.7
2018-Aug-16 01:59N 45°07' E 013°27'510.0
2018-Aug-16 01:28N 45°02' E 013°30'510.1
2018-Aug-16 01:00N 44°58' E 013°33'5 9.9
2018-Aug-16 00:30N 44°54' E 013°37'6 9.6
2018-Aug-15 23:51N 44°49' E 013°42'4 9.5
2018-Aug-15 23:29N 44°46' E 013°45'5 8.1
2018-Aug-15 22:55N 44°42' E 013°49'6 7.7
2018-Aug-15 22:06N 44°37' E 013°54'1 7.7
2018-Aug-15 21:59N 44°36' E 013°54'6 8.1
2018-Aug-15 21:12N 44°31' E 013°59'2 8.9
2018-Aug-15 20:59N 44°29' E 014°01'  
2018-Aug-09 00:52N 44°25' E 014°27'3 8.4
2018-Aug-09 00:30N 44°25' E 014°23'4 8.5
2018-Aug-09 00:00N 44°26' E 014°17'4 8.5
2018-Aug-08 23:30N 44°27' E 014°11'4 8.6
2018-Aug-08 23:00N 44°30' E 014°07'4 8.6
2018-Aug-08 22:30N 44°33' E 014°02'4 8.5
2018-Aug-08 21:59N 44°36' E 013°58'4 8.6
2018-Aug-08 21:28N 44°39' E 013°53'5 8.8
2018-Aug-08 20:56N 44°42' E 013°48'4 8.8
2018-Aug-08 20:30N 44°45' E 013°44'4 8.9
2018-Aug-08 20:00N 44°48' E 013°40'5 9.4
2018-Aug-08 19:30N 44°51' E 013°36'4 8.7
2018-Aug-08 19:00N 44°55' E 013°32'5 8.9
2018-Aug-08 18:30N 44°58' E 013°27'5 9.4
2018-Aug-08 18:00N 45°01' E 013°23'5 9.3
2018-Aug-08 17:30N 45°04' E 013°18'4 8.6
2018-Aug-08 17:00N 45°06' E 013°13'5 9.1
2018-Aug-08 16:30N 45°07' E 013°06'5 9.3
2018-Aug-08 16:00N 45°07' E 012°60'5 9.3
2018-Aug-08 15:30N 45°08' E 012°53'5 9.0
2018-Aug-08 15:00N 45°09' E 012°47'5 9.0
2018-Aug-08 14:28N 45°08' E 012°40'4 8.8
2018-Aug-08 14:00N 45°10' E 012°35'4 8.8
2018-Aug-08 13:30N 45°13' E 012°30'5 9.1
2018-Aug-08 13:00N 45°18' E 012°30'4 9.0
2018-Aug-08 12:30N 45°22' E 012°30'4 8.7
2018-Aug-08 12:00N 45°25' E 012°26'3 6.1
2018-Aug-08 11:30N 45°26' E 012°21'2 3.3
2018-Aug-08 10:58N 45°26' E 012°19'0 0.0
2018-Aug-08 10:25N 45°26' E 012°19'0 0.0
2018-Aug-08 09:58N 45°26' E 012°19'0 0.0
2018-Aug-08 09:28N 45°26' E 012°19'0 0.0
2018-Aug-08 08:58N 45°26' E 012°19'0 0.0
2018-Aug-08 08:28N 45°26' E 012°19'0 0.0
2018-Aug-08 07:58N 45°26' E 012°19'0 0.0
2018-Aug-08 07:28N 45°26' E 012°19'0 0.0
2018-Aug-08 06:58N 45°26' E 012°19'0 0.0
2018-Aug-08 06:28N 45°26' E 012°19'0 0.0
2018-Aug-08 05:55N 45°26' E 012°19'0 0.0
2018-Aug-08 05:28N 45°26' E 012°19'0 0.0
2018-Aug-08 04:58N 45°26' E 012°19'0 0.0
2018-Aug-08 04:28N 45°26' E 012°19'0 0.0
2018-Aug-08 03:58N 45°26' E 012°19'0 0.0
2018-Aug-08 03:28N 45°26' E 012°19'0 0.0
2018-Aug-08 02:58N 45°26' E 012°19'0 0.0
2018-Aug-08 02:28N 45°26' E 012°19'0 0.0
2018-Aug-08 01:58N 45°26' E 012°19'0 0.0
2018-Aug-08 01:28N 45°26' E 012°19'0 0.0
2018-Aug-08 00:55N 45°26' E 012°19'  
Track history (hours):
 
Tides and Currents Weather Stations Pressure Air Temp Water Temp Dewpoint Dewpoint Depression Visibility Wind Speed Wind Dir Waves Ship Positions

Wind Surf

Operator: Holland America Line

Last reported at 2018-Aug-18 00:30 UTC. Time now 2018-Aug-18 00:46 UTC.
Position N 44°59' E 013°00'.

Length 187 m; draft 5.4 m.

Type: Passenger vessel. MMSI: 309242000.

Date/timePositionNaut miles runAvg speedWind from/ knotsBaromVisibWave heightAir tempDewpointWater temp
2018-Aug-18 00:30N 44°59' E 013°00'4 6.4
2018-Aug-17 23:57N 44°56' E 012°58'3 6.0
2018-Aug-17 23:30N 44°55' E 012°54'3 6.0
2018-Aug-17 23:00N 44°56' E 012°50'3 6.5
2018-Aug-17 22:29N 44°59' E 012°48'3 6.4
2018-Aug-17 22:00N 45°02' E 012°46'3 6.7
2018-Aug-17 21:30N 45°05' E 012°44'3 6.7
2018-Aug-17 21:00N 45°08' E 012°42'3 6.6
2018-Aug-17 20:30N 45°09' E 012°38'3 6.6
2018-Aug-17 20:00N 45°11' E 012°33'3 6.5
2018-Aug-17 19:30N 45°13' E 012°30'3 6.6
2018-Aug-17 19:00N 45°16' E 012°30'3 6.7
2018-Aug-17 18:30N 45°20' E 012°30'3 6.2
2018-Aug-17 18:00N 45°23' E 012°30'3 6.7
2018-Aug-17 17:30N 45°25' E 012°26'3 6.6
2018-Aug-17 17:00N 45°25' E 012°22'2 3.3
2018-Aug-17 16:25N 45°26' E 012°19'0 0.0
2018-Aug-17 15:55N 45°26' E 012°19'0 0.0
2018-Aug-17 15:28N 45°26' E 012°19'0 0.0
2018-Aug-17 14:55N 45°26' E 012°19'0 0.0
2018-Aug-17 13:58N 45°26' E 012°19'0 0.0
2018-Aug-17 13:28N 45°26' E 012°19'0 0.0
2018-Aug-17 12:58N 45°26' E 012°19'0 0.0
2018-Aug-17 12:28N 45°26' E 012°19'0 0.0
2018-Aug-17 11:58N 45°26' E 012°19'0 0.0
2018-Aug-17 11:28N 45°26' E 012°19'0 0.0
2018-Aug-17 10:58N 45°26' E 012°19'0 0.0
2018-Aug-17 10:28N 45°26' E 012°19'0 0.0
2018-Aug-17 09:58N 45°26' E 012°19'0 0.0
2018-Aug-17 09:28N 45°26' E 012°19'0 0.0
2018-Aug-17 08:58N 45°26' E 012°19'0 0.0
2018-Aug-17 08:25N 45°26' E 012°19'0 0.0
2018-Aug-17 07:58N 45°26' E 012°19'0 0.0
2018-Aug-17 07:25N 45°26' E 012°19'0 0.0
2018-Aug-17 06:58N 45°26' E 012°19'0 0.0
2018-Aug-17 06:28N 45°26' E 012°19'0 0.0
2018-Aug-17 05:58N 45°26' E 012°19'0 0.0
2018-Aug-17 05:28N 45°26' E 012°19'0 0.0
2018-Aug-17 04:58N 45°26' E 012°19'0 0.0
2018-Aug-17 04:28N 45°26' E 012°19'0 0.8
2018-Aug-17 04:00N 45°26' E 012°19'2 4.7
2018-Aug-17 03:30N 45°25' E 012°22'4 7.7
2018-Aug-17 03:00N 45°25' E 012°27'4 7.5
2018-Aug-17 02:30N 45°23' E 012°32'3 5.8
2018-Aug-17 02:00N 45°21' E 012°35'3 5.9
2018-Aug-17 01:30N 45°20' E 012°39'3 5.9
2018-Aug-17 01:01N 45°19' E 012°43'3 5.6
2018-Aug-17 00:30N 45°18' E 012°47'3 5.7
2018-Aug-17 00:00N 45°17' E 012°51'2 4.7
2018-Aug-16 23:30N 45°19' E 012°53'3 5.6
2018-Aug-16 23:00N 45°20' E 012°56'3 5.5
2018-Aug-16 22:30N 45°21' E 012°60'3 5.8
2018-Aug-16 21:58N 45°23' E 013°04'3 5.9
2018-Aug-16 21:30N 45°24' E 013°07'3 5.6
2018-Aug-16 21:00N 45°25' E 013°11'3 5.4
2018-Aug-16 20:30N 45°26' E 013°15'3 5.5
2018-Aug-16 20:00N 45°27' E 013°18'3 5.6
2018-Aug-16 19:30N 45°28' E 013°22'3 5.7
2018-Aug-16 19:01N 45°29' E 013°26'1 2.3
2018-Aug-16 18:30N 45°30' E 013°25'1 1.4
2018-Aug-16 18:00N 45°30' E 013°26'1 2.5
2018-Aug-16 17:30N 45°31' E 013°27'3 5.2
2018-Aug-16 17:00N 45°31' E 013°31'2 3.1
2018-Aug-16 16:29N 45°31' E 013°33'0 0.1
2018-Aug-16 15:38N 45°31' E 013°33'0 0.0
2018-Aug-16 15:11N 45°31' E 013°33'0 0.0
2018-Aug-16 14:56N 45°31' E 013°33'0 0.0
2018-Aug-16 14:29N 45°31' E 013°33'0 0.0
2018-Aug-16 13:47N 45°31' E 013°33'0 0.0
2018-Aug-16 13:26N 45°31' E 013°33'0 0.0
2018-Aug-16 12:38N 45°31' E 013°33'0 0.0
2018-Aug-16 12:29N 45°31' E 013°33'0 0.0
2018-Aug-16 11:41N 45°31' E 013°33'0 0.0
2018-Aug-16 11:29N 45°31' E 013°33'0 0.0
2018-Aug-16 10:53N 45°31' E 013°33'0 0.0
2018-Aug-16 10:29N 45°31' E 013°33'0 0.0
2018-Aug-16 09:47N 45°31' E 013°33'0 0.0
2018-Aug-16 09:23N 45°31' E 013°33'0 0.0
2018-Aug-16 08:59N 45°31' E 013°33'0 0.0
2018-Aug-16 08:29N 45°31' E 013°33'0 0.0
2018-Aug-16 07:44N 45°31' E 013°33'0 0.1
2018-Aug-16 07:20N 45°31' E 013°33'0 0.0
2018-Aug-16 06:05N 45°31' E 013°33'0 0.0
2018-Aug-16 05:53N 45°31' E 013°33'0 0.0
2018-Aug-16 05:23N 45°31' E 013°33'0 0.9
2018-Aug-16 05:00N 45°31' E 013°33'4 8.8
2018-Aug-16 04:31N 45°30' E 013°27'5 9.6
2018-Aug-16 04:01N 45°26' E 013°24'5 9.6
2018-Aug-16 03:30N 45°21' E 013°24'5 9.6
2018-Aug-16 03:00N 45°16' E 013°25'5 9.6
2018-Aug-16 02:30N 45°12' E 013°25'5 9.7
2018-Aug-16 01:59N 45°07' E 013°27'510.0
2018-Aug-16 01:28N 45°02' E 013°30'510.1
2018-Aug-16 01:00N 44°58' E 013°33'5 9.9
2018-Aug-16 00:30N 44°54' E 013°37'6 9.6
2018-Aug-15 23:51N 44°49' E 013°42'4 9.5
2018-Aug-15 23:29N 44°46' E 013°45'5 8.1
2018-Aug-15 22:55N 44°42' E 013°49'6 7.7
2018-Aug-15 22:06N 44°37' E 013°54'1 7.7
2018-Aug-15 21:59N 44°36' E 013°54'6 8.1
2018-Aug-15 21:12N 44°31' E 013°59'2 8.9
2018-Aug-15 20:59N 44°29' E 014°01'  
2018-Aug-09 00:52N 44°25' E 014°27'3 8.4
2018-Aug-09 00:30N 44°25' E 014°23'4 8.5
2018-Aug-09 00:00N 44°26' E 014°17'4 8.5
2018-Aug-08 23:30N 44°27' E 014°11'4 8.6
2018-Aug-08 23:00N 44°30' E 014°07'4 8.6
2018-Aug-08 22:30N 44°33' E 014°02'4 8.5
2018-Aug-08 21:59N 44°36' E 013°58'4 8.6
2018-Aug-08 21:28N 44°39' E 013°53'5 8.8
2018-Aug-08 20:56N 44°42' E 013°48'4 8.8
2018-Aug-08 20:30N 44°45' E 013°44'4 8.9
2018-Aug-08 20:00N 44°48' E 013°40'5 9.4
2018-Aug-08 19:30N 44°51' E 013°36'4 8.7
2018-Aug-08 19:00N 44°55' E 013°32'5 8.9
2018-Aug-08 18:30N 44°58' E 013°27'5 9.4
2018-Aug-08 18:00N 45°01' E 013°23'5 9.3
2018-Aug-08 17:30N 45°04' E 013°18'4 8.6
2018-Aug-08 17:00N 45°06' E 013°13'5 9.1
2018-Aug-08 16:30N 45°07' E 013°06'5 9.3
2018-Aug-08 16:00N 45°07' E 012°60'5 9.3
2018-Aug-08 15:30N 45°08' E 012°53'5 9.0
2018-Aug-08 15:00N 45°09' E 012°47'5 9.0
2018-Aug-08 14:28N 45°08' E 012°40'4 8.8
2018-Aug-08 14:00N 45°10' E 012°35'4 8.8
2018-Aug-08 13:30N 45°13' E 012°30'5 9.1
2018-Aug-08 13:00N 45°18' E 012°30'4 9.0
2018-Aug-08 12:30N 45°22' E 012°30'4 8.7
2018-Aug-08 12:00N 45°25' E 012°26'3 6.1
2018-Aug-08 11:30N 45°26' E 012°21'2 3.3
2018-Aug-08 10:58N 45°26' E 012°19'0 0.0
2018-Aug-08 10:25N 45°26' E 012°19'0 0.0
2018-Aug-08 09:58N 45°26' E 012°19'0 0.0
2018-Aug-08 09:28N 45°26' E 012°19'0 0.0
2018-Aug-08 08:58N 45°26' E 012°19'0 0.0
2018-Aug-08 08:28N 45°26' E 012°19'0 0.0
2018-Aug-08 07:58N 45°26' E 012°19'0 0.0
2018-Aug-08 07:28N 45°26' E 012°19'0 0.0
2018-Aug-08 06:58N 45°26' E 012°19'0 0.0
2018-Aug-08 06:28N 45°26' E 012°19'0 0.0
2018-Aug-08 05:55N 45°26' E 012°19'0 0.0
2018-Aug-08 05:28N 45°26' E 012°19'0 0.0
2018-Aug-08 04:58N 45°26' E 012°19'0 0.0
2018-Aug-08 04:28N 45°26' E 012°19'0 0.0
2018-Aug-08 03:58N 45°26' E 012°19'0 0.0
2018-Aug-08 03:28N 45°26' E 012°19'0 0.0
2018-Aug-08 02:58N 45°26' E 012°19'0 0.0
2018-Aug-08 02:28N 45°26' E 012°19'0 0.0
2018-Aug-08 01:58N 45°26' E 012°19'0 0.0
2018-Aug-08 01:28N 45°26' E 012°19'0 0.0
2018-Aug-08 00:55N 45°26' E 012°19'  

Dump ship's entire track history